createdAt,value
2023-04-11T00:11:45.295Z,2.10
2023-04-11T00:24:45.283Z,2.00
2023-04-11T00:37:45.316Z,1.70
2023-04-11T00:50:45.282Z,2.00
2023-04-11T01:03:45.423Z,1.60
2023-04-11T01:16:45.326Z,1.50
2023-04-11T01:29:45.310Z,1.50
2023-04-11T01:42:45.330Z,1.50
2023-04-11T01:55:45.343Z,1.60
2023-04-11T02:08:45.328Z,1.70
2023-04-11T02:21:45.316Z,1.60
2023-04-11T02:34:45.335Z,1.60
2023-04-11T02:47:45.455Z,1.40
2023-04-11T03:00:45.346Z,1.50
2023-04-11T03:13:45.380Z,1.60
2023-04-11T03:26:45.381Z,1.30
2023-04-11T03:39:45.376Z,1.40
2023-04-11T03:52:45.428Z,1.40
2023-04-11T04:05:45.417Z,1.40
2023-04-11T04:18:45.426Z,1.50
2023-04-11T04:32:45.462Z,1.40
2023-04-11T04:46:45.416Z,1.40
2023-04-11T05:00:45.405Z,1.20
2023-04-11T05:14:45.440Z,1.20
2023-04-11T05:28:45.483Z,1.80
2023-04-11T05:42:45.487Z,1.90
2023-04-11T05:56:45.559Z,2.00
2023-04-11T06:10:45.607Z,1.90
2023-04-11T06:24:45.594Z,2.20
2023-04-11T06:38:45.575Z,2.10
2023-04-11T06:52:45.611Z,2.30
2023-04-11T07:06:45.638Z,2.00
2023-04-11T07:20:45.630Z,2.20
2023-04-11T07:34:45.633Z,2.00
2023-04-11T07:48:45.689Z,3.50
2023-04-11T08:02:45.756Z,5.70
2023-04-11T08:16:45.736Z,6.40
2023-04-11T08:30:45.702Z,5.80
2023-04-11T08:44:45.667Z,10.60
2023-04-11T08:55:45.681Z,8.70
2023-04-11T09:06:45.730Z,8.30
2023-04-11T09:20:45.697Z,7.30
2023-04-11T09:34:45.747Z,6.90
2023-04-11T09:48:47.063Z,6.70
2023-04-11T10:02:45.946Z,6.10
2023-04-11T10:16:45.883Z,5.50
2023-04-11T10:30:45.802Z,4.90
2023-04-11T10:44:45.773Z,4.90
2023-04-11T10:58:45.855Z,4.80
2023-04-11T11:12:45.862Z,4.10
2023-04-11T11:26:45.922Z,4.50
2023-04-11T11:40:46.121Z,3.70
2023-04-11T11:54:45.953Z,3.80
2023-04-11T12:08:46.422Z,3.30
2023-04-11T12:22:45.928Z,3.50
2023-04-11T12:36:45.964Z,3.30
2023-04-11T12:50:45.962Z,3.30
2023-04-11T13:04:46.013Z,3.30
2023-04-11T13:18:46.012Z,3.20
2023-04-11T13:32:46.180Z,3.10
2023-04-11T13:46:46.056Z,3.30
2023-04-11T14:00:46.073Z,3.10
2023-04-11T14:14:46.066Z,2.90
2023-04-11T14:28:46.034Z,3.50
2023-04-11T14:42:46.137Z,3.00
2023-04-11T14:56:46.117Z,2.95
2023-04-11T15:10:46.193Z,3.10
2023-04-11T15:24:46.131Z,3.00
2023-04-11T15:38:46.118Z,3.20
2023-04-11T15:52:46.144Z,3.10
2023-04-11T16:06:46.138Z,2.85
2023-04-11T16:20:46.156Z,3.15
2023-04-11T16:34:46.167Z,3.00
2023-04-11T16:48:46.159Z,2.80
2023-04-11T17:02:46.325Z,2.70
2023-04-11T17:16:46.254Z,2.60
2023-04-11T17:30:46.291Z,2.60
2023-04-11T17:44:46.249Z,2.40
2023-04-11T17:58:46.246Z,2.30
2023-04-11T18:12:46.274Z,2.10
2023-04-11T18:26:46.270Z,2.20
2023-04-11T18:39:46.255Z,2.10
2023-04-11T18:52:48.025Z,2.30
2023-04-11T19:05:46.611Z,2.60
2023-04-11T19:18:46.300Z,2.70
2023-04-11T19:31:46.303Z,2.50
2023-04-11T19:44:46.333Z,3.10
2023-04-11T19:57:46.404Z,3.50
2023-04-11T20:10:46.459Z,4.00
2023-04-11T20:23:46.367Z,4.20
2023-04-11T20:36:46.352Z,4.00
2023-04-11T20:49:46.384Z,3.80
2023-04-11T21:02:46.565Z,3.40
2023-04-11T21:15:46.398Z,3.40
2023-04-11T21:28:46.408Z,3.40
2023-04-11T21:41:46.414Z,3.40
2023-04-11T21:54:46.396Z,3.40
2023-04-11T22:07:46.401Z,3.20
2023-04-11T22:20:46.392Z,3.00
2023-04-11T22:33:46.420Z,2.90
2023-04-11T22:46:46.450Z,2.85
2023-04-11T22:59:46.433Z,2.60
2023-04-11T23:12:46.427Z,2.80
2023-04-11T23:25:46.421Z,2.50
2023-04-11T23:38:46.434Z,2.80
2023-04-11T23:51:46.502Z,2.60
